Time;durP1;ratioP1;P1;durP2;ratioP2;P2;SDS_P1;SDS_P2;PMS_P1;PMS_P2;Temp;Humidity;BMP_temperature;BMP_pressure;BME280_temperature;BME280_humidity;BME280_pressure;Samples;Min_cycle;Max_cycle;Signal;HPM_P1;HPM_P2
2022/12/27 00:00:24;;;;;;;12.68;1.50;;;;;;;6.55;100.00;100482.09;5024313;57;1136939;-67
2022/12/27 00:05:31;;;;;;;8.37;2.60;;;;;;;6.38;100.00;100485.38;5075344;56;1138884;-68
2022/12/27 00:10:37;;;;;;;8.63;1.70;;;;;;;6.30;100.00;100486.67;5024614;57;1136769;-67
2022/12/27 00:15:43;;;;;;;9.10;1.50;;;;;;;6.25;100.00;100508.92;4953011;57;1136699;-67
2022/12/27 00:20:49;;;;;;;6.50;1.03;;;;;;;6.16;100.00;100523.42;4970241;57;1136809;-69
2022/12/27 00:26:06;;;;;;;5.88;1.42;;;;;;;6.13;100.00;100531.94;5057539;57;1136733;-69
2022/12/27 00:31:15;;;;;;;3.50;1.20;;;;;;;6.07;100.00;100542.36;5127215;55;1136653;-68
2022/12/27 00:36:24;;;;;;;11.00;1.93;;;;;;;6.06;100.00;100547.69;5020481;56;1136772;-70
2022/12/27 00:41:30;;;;;;;7.13;1.37;;;;;;;6.00;100.00;100551.05;5035330;56;1138846;-67
2022/12/27 00:46:36;;;;;;;5.20;1.40;;;;;;;5.94;100.00;100562.38;5005740;56;1136691;-71
2022/12/27 00:51:42;;;;;;;6.10;2.07;;;;;;;5.90;100.00;100572.20;5016095;56;1136592;-66
2022/12/27 00:56:47;;;;;;;11.67;1.73;;;;;;;5.87;100.00;100573.66;5036017;57;1136804;-67
2022/12/27 01:01:53;;;;;;;7.73;1.70;;;;;;;5.85;100.00;100582.55;5047279;56;1138759;-66
2022/12/27 01:06:59;;;;;;;11.63;1.77;;;;;;;5.82;100.00;100591.44;5025802;56;1136850;-70
2022/12/27 01:12:08;;;;;;;5.03;1.35;;;;;;;5.73;100.00;100591.12;5119760;55;1138766;-65
2022/12/27 01:17:14;;;;;;;3.92;1.65;;;;;;;5.63;100.00;100602.61;5092137;56;1136738;-66
2022/12/27 01:22:20;;;;;;;16.52;3.20;;;;;;;5.48;100.00;100609.55;5006271;56;1136741;-67
2022/12/27 01:27:25;;;;;;;5.93;1.47;;;;;;;5.42;100.00;100605.95;5117095;55;1138856;-67
2022/12/27 01:32:34;;;;;;;15.10;2.07;;;;;;;5.33;100.00;100608.23;5101692;55;1136769;-69
2022/12/27 01:37:40;;;;;;;1.63;1.27;;;;;;;5.22;100.00;100614.89;5015488;57;1138850;-67
2022/12/27 01:42:54;;;;;;;15.30;1.70;;;;;;;5.13;100.00;100610.61;5035554;57;1136625;-67
2022/12/27 01:48:07;;;;;;;7.90;1.60;;;;;;;5.01;100.00;100612.59;5015691;57;1138866;-68
2022/12/27 01:53:28;;;;;;;11.30;1.40;;;;;;;4.96;100.00;100603.64;4991791;56;1136748;-67
2022/12/27 01:58:38;;;;;;;6.63;1.17;;;;;;;4.89;100.00;100605.73;5019014;56;1138841;-71
2022/12/27 02:04:02;;;;;;;9.53;1.40;;;;;;;4.79;100.00;100622.88;5034234;57;1136675;-68
2022/12/27 02:09:30;;;;;;;7.63;1.43;;;;;;;4.79;100.00;100622.88;5063951;56;1136832;-68
2022/12/27 02:14:43;;;;;;;16.37;2.00;;;;;;;4.75;100.00;100629.65;5101993;56;1136877;-67
2022/12/27 02:20:16;;;;;;;7.35;1.45;;;;;;;4.72;100.00;100635.08;5102017;56;1138781;-68
2022/12/27 02:25:46;;;;;;;5.60;1.57;;;;;;;4.69;100.00;100632.14;5069433;56;1136660;-68
2022/12/27 02:30:55;;;;;;;10.70;1.07;;;;;;;4.70;100.00;100638.23;5077667;56;1136584;-65
2022/12/27 02:36:04;;;;;;;2.93;1.10;;;;;;;4.66;100.00;100640.62;5109224;55;1138938;-71
2022/12/27 02:58:03;;;;;;;13.97;2.43;;;;;;;4.66;100.00;100667.66;5096125;56;1136732;-69
2022/12/27 03:03:37;;;;;;;3.65;1.35;;;;;;;4.68;100.00;100671.52;5124761;55;1138755;-69
2022/12/27 03:25:39;;;;;;;12.10;2.27;;;;;;;4.55;100.00;100707.50;5107636;55;1138681;-68
2022/12/27 03:47:33;;;;;;;10.63;1.57;;;;;;;4.46;100.00;100721.03;5003530;57;1139259;-66
2022/12/27 03:52:47;;;;;;;10.13;1.30;;;;;;;4.48;100.00;100721.80;5016746;56;1138750;-68
2022/12/27 03:57:53;;;;;;;7.77;1.57;;;;;;;4.46;100.00;100732.81;5044737;56;1138698;-67
2022/12/27 04:03:00;;;;;;;10.45;1.82;;;;;;;4.46;100.00;100747.22;5014751;56;1136810;-69
2022/12/27 04:35:04;;;;;;;6.95;1.50;;;;;;;4.50;100.00;100768.87;5058705;56;1136680;-68
2022/12/27 04:56:07;;;;;;;10.43;1.70;;;;;;;4.50;100.00;100778.89;5135516;56;974140;-69
2022/12/27 05:06:38;;;;;;;5.97;0.93;;;;;;;4.50;100.00;100799.84;5096157;55;1138962;-66
2022/12/27 05:17:07;;;;;;;7.58;1.22;;;;;;;4.43;100.00;100812.83;5018207;57;1136581;-70
2022/12/27 05:27:36;;;;;;;6.83;1.60;;;;;;;4.45;100.00;100828.47;5117717;56;1136688;-66
2022/12/27 05:32:42;;;;;;;7.50;1.80;;;;;;;4.45;100.00;100832.41;5125325;56;1136681;-69
2022/12/27 05:37:48;;;;;;;5.47;1.20;;;;;;;4.43;100.00;100831.66;5035741;56;1136810;-70
2022/12/27 05:42:54;;;;;;;9.53;2.87;;;;;;;4.38;100.00;100825.77;5078433;55;1136750;-68
2022/12/27 05:48:00;;;;;;;7.23;1.40;;;;;;;4.38;100.00;100848.03;5056847;56;1136711;-67
2022/12/27 05:53:06;;;;;;;11.88;1.75;;;;;;;4.36;100.00;100842.86;5015278;56;1136581;-68
2022/12/27 05:58:11;;;;;;;23.32;3.87;;;;;;;4.32;100.00;100853.08;5015128;55;1138800;-69
2022/12/27 06:03:17;;;;;;;5.07;1.53;;;;;;;4.30;100.00;100858.84;5015289;56;1138893;-69
2022/12/27 06:08:23;;;;;;;13.60;2.73;;;;;;;4.29;100.00;100861.53;5068192;56;1136768;-69
2022/12/27 06:13:30;;;;;;;11.43;2.27;;;;;;;4.26;100.00;100879.56;5103295;56;1138844;-68
2022/12/27 06:18:38;;;;;;;6.07;1.40;;;;;;;4.23;100.00;100884.94;5046975;56;1138878;-67
2022/12/27 06:23:45;;;;;;;12.73;2.13;;;;;;;4.22;100.00;100891.94;5080307;56;1136907;-70
2022/12/27 06:28:53;;;;;;;7.07;2.30;;;;;;;4.19;100.00;100889.91;5097907;56;1138711;-66
2022/12/27 06:33:59;;;;;;;7.40;1.80;;;;;;;4.13;100.00;100904.11;5052965;56;1136658;-70
2022/12/27 06:39:05;;;;;;;7.93;2.20;;;;;;;4.09;100.00;100901.27;5032251;56;1138750;-68
2022/12/27 06:44:11;;;;;;;3.20;1.10;;;;;;;4.08;100.00;100905.26;5020140;56;1136807;-69
2022/12/27 06:49:17;;;;;;;17.17;2.80;;;;;;;4.05;100.00;100915.86;4927763;57;1136775;-67
2022/12/27 06:54:22;;;;;;;9.20;1.70;;;;;;;4.01;100.00;100916.45;4951310;58;1138871;-70
2022/12/27 06:59:28;;;;;;;13.57;2.23;;;;;;;3.97;100.00;100924.52;4971065;58;1136747;-68
2022/12/27 07:04:34;;;;;;;7.33;1.97;;;;;;;3.97;100.00;100936.30;4951601;58;1138746;-67
2022/12/27 07:09:40;;;;;;;6.13;1.50;;;;;;;3.95;100.00;100952.52;4913874;58;1136528;-66
2022/12/27 07:14:45;;;;;;;8.70;1.90;;;;;;;3.94;100.00;100954.73;4898403;59;1137098;-69
2022/12/27 07:19:51;;;;;;;12.30;1.77;;;;;;;3.91;100.00;100954.41;4953920;57;1136721;-67
2022/12/27 07:24:57;;;;;;;6.53;1.10;;;;;;;3.89;100.00;100964.94;4906808;57;1139259;-70
2022/12/27 07:30:05;;;;;;;9.00;1.47;;;;;;;3.87;100.00;100972.00;4941843;57;1136652;-70
2022/12/27 07:35:11;;;;;;;10.97;1.60;;;;;;;3.87;100.00;100984.23;5082051;55;1136742;-68
2022/12/27 07:40:17;;;;;;;9.53;1.60;;;;;;;3.89;100.00;100991.56;5131850;55;1138700;-67
2022/12/27 07:45:22;;;;;;;8.15;2.00;;;;;;;3.90;100.00;101007.66;5147083;55;1136699;-69
2022/12/27 07:50:28;;;;;;;9.70;3.00;;;;;;;3.85;100.00;101014.38;5177756;55;1136815;-69
2022/12/27 07:55:34;;;;;;;14.27;2.10;;;;;;;3.82;100.00;101011.89;5157210;55;1136799;-67
2022/12/27 08:00:40;;;;;;;10.70;2.13;;;;;;;3.83;100.00;101017.97;5157045;55;1138728;-69
2022/12/27 08:05:51;;;;;;;11.00;1.97;;;;;;;3.81;100.00;101011.98;5178128;55;1138698;-70
2022/12/27 08:10:56;;;;;;;16.50;3.70;;;;;;;3.79;100.00;101020.34;5057677;55;1138722;-67
2022/12/27 08:16:03;;;;;;;24.33;4.67;;;;;;;3.75;100.00;101028.77;5072295;56;1138663;-66
2022/12/27 08:21:09;;;;;;;13.30;1.57;;;;;;;3.74;100.00;101040.14;5092179;56;1138787;-70
2022/12/27 08:26:14;;;;;;;15.53;3.30;;;;;;;3.75;100.00;101039.23;5155533;55;1138925;-70
2022/12/27 08:31:20;;;;;;;5.97;1.98;;;;;;;3.74;100.00;101028.38;5144233;55;1138782;-67
2022/12/27 08:36:26;;;;;;;8.27;2.50;;;;;;;3.72;100.00;101028.03;5038155;56;1136730;-70
2022/12/27 08:41:32;;;;;;;8.90;2.10;;;;;;;3.69;100.00;101024.23;5018666;56;1136679;-68
2022/12/27 08:46:38;;;;;;;7.63;1.50;;;;;;;3.63;100.00;101015.35;5019495;56;1136618;-67
2022/12/27 08:51:44;;;;;;;6.60;2.10;;;;;;;3.59;100.00;101029.00;5055343;56;1136879;-69
2022/12/27 08:56:50;;;;;;;8.70;2.20;;;;;;;3.59;100.00;101035.54;5033904;56;1137000;-67
2022/12/27 09:01:56;;;;;;;9.20;2.80;;;;;;;3.61;100.00;101036.33;5037927;56;1136580;-67
2022/12/27 09:07:03;;;;;;;4.37;2.00;;;;;;;3.58;100.00;101044.75;5111784;56;1136646;-71
2022/12/27 09:12:09;;;;;;;6.95;1.57;;;;;;;3.52;100.00;101048.00;5015888;56;1141848;-70
2022/12/27 09:17:15;;;;;;;2.80;0.97;;;;;;;3.45;100.00;101055.71;5016635;56;1136757;-67
2022/12/27 09:22:21;;;;;;;7.67;2.33;;;;;;;3.46;100.00;101056.11;5026732;55;1136809;-66
2022/12/27 09:27:27;;;;;;;14.30;2.93;;;;;;;3.46;100.00;101057.41;5067256;56;1136731;-69
2022/12/27 09:32:32;;;;;;;10.70;2.33;;;;;;;3.52;100.00;101058.45;5052646;56;1138892;-66
2022/12/27 09:37:38;;;;;;;7.97;1.40;;;;;;;3.53;100.00;101068.00;5099763;55;1138879;-67
2022/12/27 09:42:57;;;;;;;6.30;2.50;;;;;;;3.54;100.00;101065.79;5132451;55;1136761;-70
2022/12/27 09:48:23;;;;;;;8.37;1.67;;;;;;;3.56;100.00;101059.65;5070381;55;1136827;-67
2022/12/27 09:53:43;;;;;;;6.13;1.87;;;;;;;3.59;100.00;101063.45;5062140;56;1136677;-68
2022/12/27 09:58:58;;;;;;;10.27;1.83;;;;;;;3.63;100.00;101067.66;5044487;55;1136598;-70
2022/12/27 10:04:08;;;;;;;8.60;2.13;;;;;;;3.62;100.00;101062.88;5122134;55;1138795;-67
2022/12/27 10:09:27;;;;;;;7.90;1.57;;;;;;;3.65;100.00;101056.69;4982833;57;1136791;-69
2022/12/27 10:14:57;;;;;;;13.77;1.97;;;;;;;3.67;100.00;101055.68;5102662;56;1136795;-67
2022/12/27 10:20:12;;;;;;;3.65;1.37;;;;;;;3.70;100.00;101047.72;5150770;55;1138887;-68
2022/12/27 10:25:22;;;;;;;8.03;1.65;;;;;;;3.73;100.00;101043.67;5101080;55;1136840;-70
2022/12/27 10:30:31;;;;;;;6.17;3.27;;;;;;;3.75;100.00;101032.69;5066683;56;1136749;-67
2022/12/27 10:35:37;;;;;;;6.23;2.13;;;;;;;3.78;100.00;101029.11;5018189;56;1136592;-67
2022/12/27 10:41:18;;;;;;;9.17;1.30;;;;;;;3.81;100.00;101043.37;5018831;56;1136580;-68
2022/12/27 10:46:30;;;;;;;9.27;2.10;;;;;;;3.83;100.00;101048.06;5112960;55;1136800;-67
2022/12/27 10:51:40;;;;;;;9.13;1.57;;;;;;;3.86;100.00;101034.86;5086535;56;1136896;-69
2022/12/27 10:56:46;;;;;;;4.93;2.33;;;;;;;3.87;100.00;101036.11;5038402;56;1136867;-71
2022/12/27 11:02:05;;;;;;;6.97;1.70;;;;;;;3.91;100.00;101059.08;5038431;56;1136668;-69
2022/12/27 11:07:18;;;;;;;10.90;6.13;;;;;;;3.91;100.00;101053.84;5062311;55;1136790;-66
2022/12/27 11:12:31;;;;;;;4.72;1.40;;;;;;;3.95;100.00;101053.27;5077487;55;1138800;-69
2022/12/27 11:17:47;;;;;;;8.90;2.23;;;;;;;3.96;100.00;101063.67;5060465;56;1136567;-69
2022/12/27 11:23:09;;;;;;;17.07;3.83;;;;;;;3.98;100.00;101060.96;5120198;55;1136766;-70
2022/12/27 11:28:26;;;;;;;8.00;1.75;;;;;;;3.98;100.00;101060.50;5128299;55;1138747;-67
2022/12/27 11:33:42;;;;;;;10.05;1.90;;;;;;;3.99;100.00;101078.37;5103559;55;1136743;-69
2022/12/27 11:38:50;;;;;;;7.40;1.53;;;;;;;3.99;100.00;101075.75;5067458;56;1138667;-68
2022/12/27 11:44:09;;;;;;;34.53;3.73;;;;;;;4.03;100.00;101065.56;5103458;55;1136659;-66
2022/12/27 11:49:26;;;;;;;8.75;3.27;;;;;;;4.04;100.00;101085.13;5077958;55;1138899;-68
2022/12/27 11:55:00;;;;;;;8.53;3.02;;;;;;;4.06;100.00;101078.52;5082772;56;1136655;-67
2022/12/27 12:00:22;;;;;;;11.27;4.10;;;;;;;4.09;100.00;101077.94;5044371;56;1136851;-69
2022/12/27 12:05:49;;;;;;;9.80;3.57;;;;;;;4.10;100.00;101091.43;5039548;56;1139209;-65
2022/12/27 12:11:02;;;;;;;9.13;2.63;;;;;;;4.13;100.00;101083.88;5058284;56;1136718;-70
2022/12/27 12:16:27;;;;;;;7.35;2.67;;;;;;;4.20;100.00;101077.48;5052700;56;1136528;-67
2022/12/27 12:22:05;;;;;;;7.97;2.77;;;;;;;4.20;100.00;101077.48;5048243;56;1136615;-67
2022/12/27 12:27:39;;;;;;;3.57;1.43;;;;;;;4.27;100.00;101073.70;5094887;56;1136633;-68
2022/12/27 12:33:14;;;;;;;;;;;;;;;4.31;100.00;101080.94;5051959;56;1136736;-67
2022/12/27 12:38:43;;;;;;;14.37;2.47;;;;;;;4.32;100.00;101083.50;5072414;56;974017;-67
2022/12/27 12:43:58;;;;;;;7.63;1.80;;;;;;;4.34;100.00;101088.67;5062604;56;1136844;-70
2022/12/27 12:49:38;;;;;;;7.65;2.15;;;;;;;4.30;100.00;101092.33;5086190;56;1136867;-71
2022/12/27 12:55:06;;;;;;;9.27;1.90;;;;;;;4.31;100.00;101092.73;5025423;57;1136661;-65
2022/12/27 13:00:45;;;;;;;5.77;1.73;;;;;;;4.28;100.00;101102.05;5032781;57;1136887;-69
2022/12/27 13:06:28;;;;;;;6.50;2.20;;;;;;;4.29;100.00;101113.73;5021047;57;1136666;-65
2022/12/27 13:12:18;;;;;;;8.00;2.37;;;;;;;4.28;100.00;101112.52;5001168;57;1137122;-69
2022/12/27 13:18:03;;;;;;;3.93;2.00;;;;;;;4.31;100.00;101129.39;4952376;57;1136735;-66
2022/12/27 13:23:21;;;;;;;;;;;;;;;4.29;100.00;101130.75;4989176;56;1136736;-68
2022/12/27 13:28:56;;;;;;;10.58;2.12;;;;;;;4.30;100.00;101139.46;4970642;57;974105;-67
2022/12/27 13:34:39;;;;;;;4.80;1.97;;;;;;;4.29;100.00;101146.46;4944928;57;1136845;-70
2022/12/27 13:40:15;;;;;;;9.87;1.70;;;;;;;4.32;100.00;101146.80;5010364;57;1136788;-69
2022/12/27 13:45:50;;;;;;;6.00;1.83;;;;;;;4.31;100.00;101150.33;4995879;57;1136762;-70
2022/12/27 13:51:20;;;;;;;5.20;2.93;;;;;;;4.31;100.00;101150.33;4964575;58;1136932;-66
2022/12/27 13:56:51;;;;;;;9.57;2.00;;;;;;;4.31;100.00;101143.33;4943074;58;1136877;-69
2022/12/27 14:02:10;;;;;;;6.13;2.20;;;;;;;4.32;100.00;101155.97;5028447;57;1136870;-70
2022/12/27 14:07:45;;;;;;;12.80;2.87;;;;;;;4.31;100.00;101165.59;4933597;57;1137503;-68
2022/12/27 14:13:04;;;;;;;6.90;2.23;;;;;;;4.35;100.00;101179.41;5096798;56;1139012;-69
2022/12/27 14:18:35;;;;;;;6.33;2.60;;;;;;;4.34;100.00;101172.02;5002925;57;1136619;-70
2022/12/27 14:24:07;;;;;;;8.70;2.53;;;;;;;4.37;100.00;101186.75;5044987;56;1136953;-70
2022/12/27 14:29:41;;;;;;;6.60;2.47;;;;;;;4.36;100.00;101188.52;5097813;56;1136594;-66
2022/12/27 14:35:12;;;;;;;12.00;3.62;;;;;;;4.39;100.00;101190.16;5054631;56;1136730;-68
2022/12/27 14:40:34;;;;;;;10.60;3.83;;;;;;;4.37;100.00;101196.77;5036113;56;1146503;-71
2022/12/27 14:46:08;;;;;;;10.25;2.35;;;;;;;4.39;100.00;101203.25;5070637;56;1138852;-66
2022/12/27 14:51:33;;;;;;;7.80;2.43;;;;;;;4.38;100.00;101208.95;4951894;58;1138757;-68
2022/12/27 14:57:07;;;;;;;7.60;2.37;;;;;;;4.41;100.00;101217.14;5027628;56;1136684;-67
2022/12/27 15:02:32;;;;;;;55.47;22.13;;;;;;;4.39;100.00;101226.37;4993267;56;1136667;-67
2022/12/27 15:08:01;;;;;;;12.13;2.73;;;;;;;4.39;100.00;101227.67;4975042;57;1141032;-71
2022/12/27 15:13:29;;;;;;;8.40;3.27;;;;;;;4.41;100.00;101233.71;5005382;56;1138647;-67
2022/12/27 15:18:54;;;;;;;15.13;4.83;;;;;;;4.41;100.00;101235.02;4986422;57;1136600;-66
2022/12/27 15:24:31;;;;;;;12.63;3.10;;;;;;;4.40;100.00;101218.91;4989637;56;1138919;-71
2022/12/27 15:30:06;;;;;;;7.80;2.83;;;;;;;4.43;100.00;101244.13;5086747;56;1138716;-67
2022/12/27 15:35:49;;;;;;;10.07;3.10;;;;;;;4.41;100.00;101238.95;4914283;58;1136847;-72
2022/12/27 15:41:31;;;;;;;12.97;3.93;;;;;;;4.43;100.00;101246.26;4880050;59;1138729;-70
2022/12/27 15:47:06;;;;;;;9.70;2.63;;;;;;;4.38;100.00;101243.45;4843088;59;1138844;-68
2022/12/27 15:52:53;;;;;;;7.55;2.98;;;;;;;4.35;100.00;101249.66;4964165;57;1136842;-68
2022/12/27 15:58:06;;;;;;;15.93;5.20;;;;;;;4.30;100.00;101262.53;5017322;57;1136914;-71
2022/12/27 16:03:38;;;;;;;5.86;3.78;;;;;;;4.30;100.00;101262.53;5056288;56;1138668;-66
2022/12/27 16:08:44;;;;;;;16.80;4.00;;;;;;;4.28;100.00;101261.28;4907043;58;1136788;-68
2022/12/27 16:13:51;;;;;;;27.97;11.97;;;;;;;4.25;100.00;101267.97;4867171;58;1138730;-69
2022/12/27 16:19:19;;;;;;;11.67;5.50;;;;;;;4.26;100.00;101265.75;4867458;58;1232257;-69
2022/12/27 16:24:27;;;;;;;12.82;2.70;;;;;;;4.25;100.00;101277.13;4947122;57;1138758;-69
2022/12/27 16:29:36;;;;;;;7.87;3.03;;;;;;;4.25;100.00;101287.61;4970075;57;1138792;-67
2022/12/27 16:34:44;;;;;;;10.23;3.87;;;;;;;4.26;100.00;101293.70;4900800;56;1136758;-67
2022/12/27 16:40:10;;;;;;;6.20;2.33;;;;;;;4.27;100.00;101301.95;4875563;57;1138904;-66
2022/12/27 16:45:40;;;;;;;7.37;2.17;;;;;;;4.27;100.00;101304.11;4907193;58;1136665;-68
2022/12/27 16:51:05;;;;;;;6.53;2.57;;;;;;;4.32;100.00;101298.67;4964515;56;1136803;-68
2022/12/27 16:56:28;;;;;;;14.13;2.67;;;;;;;4.33;100.00;101296.45;4947639;57;1137131;-70
2022/12/27 17:01:45;;;;;;;;;;;;;;;4.35;100.00;101312.97;4966232;57;1138954;-68
2022/12/27 17:06:54;;;;;;;6.83;2.67;;;;;;;4.37;100.00;101313.77;4988983;57;974071;-67
2022/12/27 17:12:10;;;;;;;6.40;2.17;;;;;;;4.36;100.00;101310.74;4990223;57;1134497;-67
2022/12/27 17:17:22;;;;;;;17.13;2.77;;;;;;;4.37;100.00;101325.55;4958939;57;1136638;-69
2022/12/27 17:22:29;;;;;;;10.27;3.37;;;;;;;4.39;100.00;101325.03;4868652;58;1138969;-66
2022/12/27 17:28:05;;;;;;;7.10;2.50;;;;;;;4.38;100.00;101319.40;4979009;56;1171183;-70
2022/12/27 17:33:21;;;;;;;8.63;2.10;;;;;;;4.40;100.00;101329.36;4951542;57;1176536;-65
2022/12/27 17:38:47;;;;;;;8.67;2.20;;;;;;;4.40;100.00;101333.29;4956858;56;1177882;-67
2022/12/27 17:49:32;;;;;;;9.97;3.10;;;;;;;4.39;100.00;101336.82;4814035;58;1138914;-71
2022/12/27 18:00:02;;;;;;;11.70;2.80;;;;;;;4.37;100.00;101346.05;4829516;57;1138819;-70
2022/12/27 18:05:15;;;;;;;8.63;2.57;;;;;;;4.38;100.00;101354.30;4962008;57;1139025;-67
2022/12/27 18:10:26;;;;;;;10.75;2.92;;;;;;;4.39;100.00;101349.91;5100101;56;1136741;-72
2022/12/27 18:15:36;;;;;;;10.75;2.40;;;;;;;4.35;100.00;101358.34;5122117;56;1139069;-67
2022/12/27 18:20:42;;;;;;;9.27;1.93;;;;;;;4.34;100.00;101357.94;5102272;55;1138814;-68
2022/12/27 18:25:56;;;;;;;6.12;2.27;;;;;;;4.35;100.00;101352.24;5094855;56;1136800;-68
2022/12/27 18:31:26;;;;;;;8.15;1.77;;;;;;;4.33;100.00;101350.98;5077858;55;1136605;-67
2022/12/27 18:36:48;;;;;;;8.80;2.70;;;;;;;4.32;100.00;101366.30;4914134;57;1244439;-70
2022/12/27 18:41:55;;;;;;;12.33;1.80;;;;;;;4.30;100.00;101372.50;4800510;59;1242710;-71
2022/12/27 18:47:03;;;;;;;7.33;1.90;;;;;;;4.28;100.00;101376.98;5004370;57;1138772;-67
2022/12/27 18:52:15;;;;;;;9.67;2.00;;;;;;;4.26;100.00;101373.56;4956178;57;1251278;-72
2022/12/27 18:57:35;;;;;;;8.80;2.10;;;;;;;4.24;100.00;101374.47;4939224;57;1175377;-69
2022/12/27 19:02:42;;;;;;;12.00;2.50;;;;;;;4.23;100.00;101372.76;4952799;56;1243112;-70
2022/12/27 19:08:00;;;;;;;13.10;3.33;;;;;;;4.24;100.00;101376.23;4899543;58;1138772;-68
2022/12/27 19:13:06;;;;;;;10.60;2.27;;;;;;;4.21;100.00;101369.34;4976589;57;1255931;-64
2022/12/27 19:18:28;;;;;;;10.20;3.60;;;;;;;4.19;100.00;101384.70;4984905;57;1245998;-70
2022/12/27 19:23:47;;;;;;;21.50;5.25;;;;;;;4.14;100.00;101390.09;4970848;57;1247508;-70
2022/12/27 19:29:08;;;;;;;15.38;3.22;;;;;;;4.15;100.00;101382.64;5012883;56;1139396;-72
2022/12/27 19:34:17;;;;;;;7.83;2.77;;;;;;;4.12;100.00;101384.09;4968503;57;1251141;-67
2022/12/27 19:39:27;;;;;;;21.50;4.30;;;;;;;4.08;100.00;101386.88;4998784;57;1252094;-69
2022/12/27 19:44:34;;;;;;;12.00;3.77;;;;;;;4.03;100.00;101393.58;4992241;57;1257235;-66
2022/12/27 19:49:39;;;;;;;16.13;4.80;;;;;;;3.99;100.00;101393.73;5033381;57;1138826;-70
2022/12/27 19:54:46;;;;;;;28.53;6.43;;;;;;;3.91;100.00;101390.10;5018522;57;1253392;-67
2022/12/27 19:59:52;;;;;;;17.50;5.27;;;;;;;3.83;100.00;101389.51;5018786;57;1254104;-68
2022/12/27 20:04:57;;;;;;;12.68;4.05;;;;;;;3.71;100.00;101393.42;5030612;56;1256934;-69
2022/12/27 20:10:05;;;;;;;17.93;4.60;;;;;;;3.63;100.00;101405.93;4959797;56;1139311;-64
2022/12/27 20:15:11;;;;;;;9.93;4.47;;;;;;;3.50;100.00;101406.81;4974694;56;1138781;-70
2022/12/27 20:20:17;;;;;;;13.70;4.60;;;;;;;3.41;100.00;101408.41;4971298;57;1136923;-69
2022/12/27 20:25:23;;;;;;;14.05;4.67;;;;;;;3.35;100.00;101419.09;4968631;57;1138791;-68
2022/12/27 20:30:33;;;;;;;11.13;3.60;;;;;;;3.29;100.00;101422.36;4995412;56;1138739;-69
2022/12/27 20:35:39;;;;;;;11.33;4.03;;;;;;;3.22;100.00;101426.91;5024548;55;1138836;-67
2022/12/27 20:40:44;;;;;;;11.80;3.87;;;;;;;3.11;100.00;101431.64;5024032;56;1138903;-70
2022/12/27 20:45:51;;;;;;;15.40;4.50;;;;;;;3.04;100.00;101421.00;4995569;56;1216538;-69
2022/12/27 20:50:57;;;;;;;15.63;3.60;;;;;;;2.98;100.00;101424.66;4970344;56;1240457;-67
2022/12/27 20:56:05;;;;;;;8.80;3.60;;;;;;;2.90;100.00;101422.75;5000940;56;1138750;-72
2022/12/27 21:01:14;;;;;;;14.37;4.67;;;;;;;2.84;100.00;101417.70;4949014;57;1164786;-69
2022/12/27 21:06:24;;;;;;;13.97;3.90;;;;;;;2.80;100.00;101427.39;4966282;56;1138832;-71
2022/12/27 21:11:32;;;;;;;12.23;4.72;;;;;;;2.77;100.00;101429.23;5051314;56;1139238;-72
2022/12/27 21:16:39;;;;;;;18.90;4.10;;;;;;;2.76;100.00;101433.59;5025523;56;1138870;-68
2022/12/27 21:21:45;;;;;;;12.37;4.60;;;;;;;2.76;100.00;101426.22;4985134;56;1138890;-70
2022/12/27 21:26:50;;;;;;;22.80;7.10;;;;;;;2.73;100.00;101425.03;4982400;56;1138858;-66
2022/12/27 21:31:56;;;;;;;24.23;7.33;;;;;;;2.69;100.00;101428.62;5046433;57;1139197;-68
2022/12/27 21:37:03;;;;;;;16.45;4.12;;;;;;;2.64;100.00;101428.76;5022452;56;1138618;-71
2022/12/27 21:42:09;;;;;;;12.17;4.17;;;;;;;2.61;100.00;101434.52;5105351;56;1138725;-66
2022/12/27 21:47:15;;;;;;;10.00;3.52;;;;;;;2.57;100.00;101426.39;5072764;56;1138733;-71
2022/12/27 21:52:21;;;;;;;13.87;4.73;;;;;;;2.51;100.00;101431.78;5049728;56;1138973;-67
2022/12/27 21:57:26;;;;;;;15.60;4.53;;;;;;;2.44;100.00;101431.95;5082456;56;1146837;-66
2022/12/27 22:02:32;;;;;;;10.88;4.80;;;;;;;2.39;100.00;101436.92;5102287;56;1138884;-70
2022/12/27 22:07:38;;;;;;;12.60;4.97;;;;;;;2.32;100.00;101425.80;5083249;56;1138688;-68
2022/12/27 22:12:43;;;;;;;19.05;7.78;;;;;;;2.28;100.00;101424.20;5049264;56;1138824;-68
2022/12/27 22:17:50;;;;;;;13.67;5.83;;;;;;;2.22;100.00;101430.89;5063998;57;1139006;-71
2022/12/27 22:22:56;;;;;;;10.03;5.40;;;;;;;2.14;100.00;101439.36;5070862;56;1138730;-68
2022/12/27 22:28:01;;;;;;;14.03;5.00;;;;;;;2.09;100.00;101433.44;5064631;56;1138823;-68
2022/12/27 22:33:08;;;;;;;10.80;5.50;;;;;;;2.06;100.00;101438.73;5061911;56;1138824;-69
2022/12/27 22:38:14;;;;;;;15.00;5.97;;;;;;;2.05;100.00;101433.11;4962481;57;1138713;-69
2022/12/27 22:43:22;;;;;;;11.27;5.27;;;;;;;2.01;100.00;101428.42;4962501;57;1138924;-68
2022/12/27 22:48:28;;;;;;;20.13;5.57;;;;;;;1.98;100.00;101430.28;5004000;56;1138917;-68
2022/12/27 22:53:34;;;;;;;11.35;4.42;;;;;;;1.94;100.00;101419.52;5044243;56;1139034;-67
2022/12/27 22:58:40;;;;;;;9.07;5.17;;;;;;;1.91;100.00;101411.32;5024300;57;1138963;-71
2022/12/27 23:03:47;;;;;;;13.67;4.67;;;;;;;1.86;100.00;101407.12;5043068;56;1136726;-70
2022/12/27 23:08:53;;;;;;;9.93;5.03;;;;;;;1.80;100.00;101409.91;5128225;56;1138861;-69
2022/12/27 23:14:05;;;;;;;8.10;4.10;;;;;;;1.76;100.00;101411.30;5108330;56;1136617;-66
2022/12/27 23:19:12;;;;;;;11.13;5.17;;;;;;;1.75;100.00;101408.73;5108903;56;1136535;-65
2022/12/27 23:24:18;;;;;;;11.97;4.90;;;;;;;1.71;100.00;101402.73;5096030;56;1138775;-69
2022/12/27 23:29:25;;;;;;;18.03;5.47;;;;;;;1.67;100.00;101398.52;5065037;56;1138813;-68
2022/12/27 23:34:31;;;;;;;14.73;5.83;;;;;;;1.64;100.00;101389.47;5077664;56;1138912;-69
2022/12/27 23:39:37;;;;;;;11.08;5.10;;;;;;;1.59;100.00;101396.55;5044166;57;1138903;-67
2022/12/27 23:44:42;;;;;;;6.13;3.77;;;;;;;1.52;100.00;101398.92;5055877;57;1138882;-67
2022/12/27 23:49:48;;;;;;;12.07;5.00;;;;;;;1.49;100.00;101386.41;4962923;57;1136713;-67
2022/12/27 23:54:54;;;;;;;14.27;5.20;;;;;;;1.46;100.00;101387.34;4962923;57;1139023;-69
2022/12/27 23:59:59;;;;;;;7.37;4.73;;;;;;;1.42;100.00;101381.80;4982385;57;1138851;-67
